ASN logo
ASN Wikibase Occurrence # 226764
Last updated: 23 March 2020
This information is added by users of ASN. Neither ASN nor the Flight Safety Foundation are responsible for the completeness or correctness of this information. If you feel this information is incomplete or incorrect, you can submit corrected information.

Date:01-JUL-2019
Time:03:47 UTC
Type:Silhouette image of generic B738 model; specific model in this crash may look slightly different
Boeing 737-8HG (WL)
Owner/operator:Air India Express
Registration: VT-AXM
C/n / msn: 36326
Fatalities:Fatalities: 0 / Occupants: 180
Other fatalities:0
Aircraft damage: Unknown
Location:Kozhikode-Calicut Airport (CCJ/VOCL) -   India
Phase: Landing
Nature:International Scheduled Passenger
Departure airport:Dammam-King Fahad International Airport (DMM/OEDF)
Destination airport:Kozhikode-Calicut Airport (CCJ/VOCL)
Narrative:
Air India Express flight IX382 suffered a tail strike on landing.
The aircraft was able to resume service with a delay of four hours.

Weather at the time of the incident (0347Z):
VOCL 010300Z 36002KT 5000 BR SCT006 SCT012 FEW025CB BKN080 28/25 Q1007 NOSIG
VOCL 010400Z 35005KT 5000 -RA SCT006 SCT012 FEW025CB BKN080 30/25 Q1008 NOSIG

Sources:

https://www.newsnation.in/india-news/major-disaster-averted-at-kozhikode-airport-air-india-express-dammam-kozhikode-flight-suffers-tail-tip-article-229230.html


Revision history:

Date/timeContributorUpdates
03-Jul-2019 07:16 harro Added
03-Jul-2019 07:18 harro Updated [Location, Narrative]

Corrections or additions? ... Edit this accident description